WEATHER DATA

YESTERDAY
Time Temp. Dewp. Hum. Wind dir Wind speed Wind gust Bar. 1h Prec. 24h Prec.
00:03 5.3 3.5 88 219 1.4 3.1 1011.1 0.0000 0.0000
00:12 5.2 3.2 87 226 1.7 7.8 1011.3 0.0000 0.0000
00:22 5.1 3.1 87 228 1.4 4.4 1011.5 0.0000 0.0000
00:33 5.1 3.3 88 219 1.4 3.6 1011.7 0.0000 0.0000
00:43 5.1 3.3 88 216 1.1 2.8 1011.8 0.0000 0.0000
00:53 5.1 3.1 87 219 1.7 4.4 1011.9 0.0000 0.0000
01:03 5.1 3.1 87 223 1.7 4.2 1011.9 0.0000 0.0000
01:13 5.2 3.2 87 225 1.4 3.6 1012 0.0000 0.0000
01:23 5.2 3.2 87 223 1.7 3.9 1012.2 0.0000 0.0000
01:33 5.2 3.2 87 230 1.7 5.6 1012.4 0.0000 0.0000
01:44 5.2 3.1 86 221 2.5 6.9 1012.5 0.0000 0.0000
01:54 5.2 3.2 87 216 1.1 4.2 1012.6 0.0000 0.0000
02:03 5.2 3.2 87 230 1.9 5.6 1012.9 0.0000 0.0000
02:14 5.2 3.2 87 233 1.7 4.2 1013.1 0.1475 0.1000
02:24 5.2 3.1 86 227 1.7 3.9 1013.3 0.1475 0.1000
02:34 5.1 3.1 87 239 2.5 6.1 1013.4 0.2951 0.3000
02:44 4.9 3.1 88 237 2.2 6.1 1013.6 0.7377 0.7000
02:55 4.8 3 88 244 2.2 4.7 1013.7 0.8853 0.9000
03:05 4.7 3 89 239 1.7 5.6 1013.7 0.7377 0.9000
03:15 4.7 3.2 90 227 1.1 3.3 1013.6 0.7377 0.9000
03:24 4.6 3.1 90 229 1.7 4.4 1013.6 0.7377 0.9000
03:35 4.6 3.1 90 228 1.9 5 1013.8 0.2951 0.9000
03:45 4.7 3 89 228 1.9 6.1 1013.8 0.0000 0.9000
04:00 4.7 2.9 88 229 1.9 7.2 1014 0.0000 0.9000
04:11 4.7 2.7 87 229 1.9 4.7 1014.1 0.0000 0.9000
04:22 4.7 2.9 88 237 1.4 3.6 1014.3 0.1475 1.0000
04:32 4.7 2.9 88 231 1.7 5.8 1014.5 0.1475 1.0000
04:42 4.7 2.9 88 231 2.5 6.9 1014.7 0.1475 1.0000
04:52 4.5 2.7 88 237 1.9 5.8 1014.9 0.2951 1.2000
05:02 4.4 2.7 89 236 1.1 3.1 1014.9 0.2951 1.2000
05:12 4.3 2.7 89 233 1.4 3.6 1015.1 0.2951 1.2000
05:22 4.2 2.7 90 225 1.7 3.9 1015 0.1475 1.2000
05:33 4.2 2.7 90 232 1.7 4.4 1015.1 0.1475 1.2000
05:52 4.1 2.5 89 235 2.2 4.4 1015.5 0.0000 1.2000
06:03 4.1 2.5 89 240 2.2 5 1015.6 0.0000 1.2000
06:14 4 2.5 90 240 1.7 4.2 1015.5 0.2951 1.5000
06:24 4 2.7 91 229 1.9 5 1015.6 0.2951 1.5000
06:34 3.9 2.6 91 241 1.4 3.9 1015.5 0.2951 1.5000
06:44 3.9 2.4 90 231 1.1 3.6 1015.7 0.2951 1.5000
06:54 3.9 2.4 90 237 2.2 7.2 1015.8 0.4426 1.6000
07:15 3.9 2.4 90 231 1.7 4.2 1016.2 0.1475 1.6000
07:25 3.9 2.4 90 225 1.9 4.7 1016.2 0.1475 1.6000
07:36 3.9 2.3 89 231 1.9 4.4 1016.3 0.1475 1.6000
07:46 3.9 2.3 89 225 2.2 7.2 1016.3 0.1475 1.6000
07:56 3.9 2.1 88 226 2.2 5.3 1016.5 0.0000 1.6000
08:06 3.9 2.1 88 227 2.8 5.6 1016.7 0.0000 1.6000
08:17 3.9 1.9 87 232 2.5 6.1 1017 0.0000 1.6000
08:27 3.8 2 88 229 2.2 5.3 1017.1 0.0000 1.6000
08:36 3.8 2 88 227 1.7 4.7 1017.1 0.0000 1.6000
08:47 3.7 1.9 88 229 1.9 4.2 1017.3 0.0000 1.6000
08:57 3.7 1.9 88 233 1.9 5.3 1017.4 0.0000 1.6000
09:07 3.8 2.2 89 231 1.9 5.8 1017.6 0.0000 1.6000
09:17 3.7 2.1 89 232 2.2 4.7 1017.9 0.1475 1.8000
09:28 3.7 2.2 90 226 1.4 4.7 1018 0.1475 1.8000
09:33 3.7 2.2 90 229 1.9 7.2 1018 0.2951 1.9000
09:43 3.7 2.4 91 230 1.9 3.9 1018.3 0.4426 2.1000
10:03 3.7 2.4 91 229 1.7 5 1018.5 0.4426 2.1000
10:14 3.8 2.5 91 229 1.7 4.4 1018.5 0.2951 2.1000
10:24 3.8 2.5 91 224 1.9 5.8 1018.6 0.1475 2.1000
10:34 3.9 2.6 91 221 1.7 4.7 1018.8 0.1475 2.1000
10:44 3.8 2.5 91 228 1.7 5.6 1018.7 0.0000 2.1000
10:55 3.9 2.6 91 228 1.7 5 1018.6 0.0000 2.1000
11:05 4.1 2.6 90 230 2.2 5.3 1018.7 0.0000 2.1000
11:15 4.2 2.7 90 231 1.9 3.6 1018.6 0.0000 2.1000
11:25 4.3 2.7 89 225 2.2 7.2 1018.7 0.0000 2.1000
11:35 4.4 2.6 88 236 2.5 7.2 1018.6 0.0000 2.1000
11:45 4.5 2.7 88 233 2.5 5.8 1018.6 0.0000 2.1000
11:55 4.5 2.5 87 227 2.2 5.3 1018.5 0.0000 2.1000
12:06 4.6 2.5 86 227 1.9 5 1018.6 0.0000 2.1000
12:15 4.7 2.6 86 230 1.9 6.4 1018.6 0.0000 2.1000
12:25 4.8 2.5 85 225 1.9 5 1018.3 0.0000 2.1000
12:36 4.9 2.6 85 220 1.7 6.4 1018.5 0.0000 2.1000
12:46 4.9 2.6 85 230 1.9 4.4 1018.4 0.0000 2.1000
12:53 5 2.7 85 232 1.9 7.2 1018.3 0.0000 2.1000
13:03 5.1 2.6 84 225 2.2 5.8 1018.3 0.0000 2.1000
13:19 5.1 2.5 83 232 2.8 10.6 1018.4 0.0000 2.1000
13:29 5 2.4 83 224 2.5 6.4 1018 0.0000 2.1000
13:40 5.1 2.5 83 225 1.7 4.4 1018.2 0.0000 2.1000
13:56 5 2.2 82 227 2.2 7.5 1017.9 0.0000 2.1000
14:06 5 2.4 83 228 1.9 4.2 1018 0.0000 2.1000
14:16 4.9 2.3 83 225 1.9 5 1017.8 0.0000 2.1000
14:27 4.9 2.3 83 229 1.9 5 1017.7 0.0000 2.1000
14:37 4.8 2.2 83 226 2.8 6.4 1017.6 0.0000 2.1000
14:46 4.8 2.2 83 231 2.2 4.7 1017.6 0.0000 2.1000
14:50 4.8 2.2 83 227 2.5 7.8 1017.7 0.0000 2.1000
15:09 4.6 1.8 82 227 2.5 5.3 1017.8 0.0000 2.1000
15:20 4.6 1.8 82 228 1.9 4.2 1018 0.0000 2.1000
15:41 4.5 1.5 81 235 1.9 4.4 1017.8 0.0000 2.1000
15:51 4.4 1.4 81 235 1.7 4.4 1017.8 0.0000 2.1000
16:01 4.3 1.5 82 232 1.9 4.4 1018.5 0.0000 2.1000
16:10 4.3 1.5 82 230 1.9 5.8 1017.9 0.0000 2.1000
16:21 4.2 1.2 81 225 1.7 5 1018 0.0000 2.1000
16:31 4.1 1.1 81 229 2.2 4.7 1018 0.0000 2.1000
16:51 3.9 1.1 82 220 2.2 6.4 1017.9 0.0000 2.1000
17:01 3.8 1 82 227 2.2 6.9 1018 0.0000 2.1000
17:12 3.8 1.2 83 227 2.2 6.4 1017.9 0.0000 2.1000
17:22 3.8 1.2 83 227 2.2 6.9 1017.8 0.1475 2.2000
17:32 3.7 1.3 84 227 2.5 6.4 1017.8 0.1475 2.2000
17:41 3.7 1.3 84 227 2.5 6.9 1017.9 0.1475 2.2000
17:53 3.6 1.2 84 229 2.5 7.8 1018 0.1475 2.2000
18:04 3.6 1.2 84 236 2.5 6.1 1017.9 0.1475 2.2000
18:14 3.5 1.1 84 229 2.2 5.3 1018 0.1475 2.2000
18:24 3.5 1.2 85 234 2.2 6.4 1017.9 0.0000 2.2000
18:34 3.5 1.2 85 229 2.2 5.3 1018 0.0000 2.2000
18:45 3.5 1.2 85 230 2.2 5 1018 0.0000 2.2000
18:55 3.5 1.2 85 232 1.9 5.3 1018 0.0000 2.2000
19:04 3.5 1.2 85 235 2.5 5.8 1018.2 0.0000 2.2000
19:15 3.5 1.2 85 240 2.5 5.3 1018.2 0.0000 2.2000
19:25 3.5 1.2 85 236 2.5 4.7 1018 0.0000 2.2000
19:35 3.5 1.2 85 238 3.1 6.9 1017.9 0.0000 2.2000
19:45 3.6 1.5 86 236 2.5 8.3 1018.2 0.0000 2.2000
19:56 3.5 1.5 87 235 2.2 4.4 1018 0.0000 2.2000
20:06 3.4 1.4 87 235 1.9 4.2 1018.2 0.0000 2.2000
20:16 3.4 1.6 88 235 2.5 5.6 1018.2 0.0000 2.2000
20:25 3.4 1.6 88 230 2.2 4.7 1017.9 0.0000 2.2000
20:36 3.4 1.6 88 232 2.2 5.3 1017.9 0.0000 2.2000
20:46 3.4 1.6 88 237 2.2 6.1 1017.9 0.0000 2.2000
20:56 3.3 1.5 88 229 2.5 5 1018 0.0000 2.2000
21:06 3.3 1.7 89 230 1.9 6.1 1018.3 0.0000 2.2000
21:18 3.3 1.7 89 229 1.9 3.6 1018.2 0.0000 2.2000
21:28 3.2 1.6 89 231 1.7 3.9 1018.4 0.0000 2.2000
21:37 3.2 1.6 89 231 1.9 5.3 1018.3 0.0000 2.2000
21:47 3.3 1.8 90 232 1.9 4.7 1018.2 0.0000 2.2000
21:58 3.3 1.8 90 227 1.9 5.6 1018.3 0.0000 2.2000
22:08 3.3 1.8 90 233 2.2 4.7 1018.3 0.0000 2.2000
22:17 3.3 1.8 90 228 1.9 3.9 1018.3 0.0000 2.2000
22:29 3.4 1.9 90 233 1.9 4.2 1018.4 0.0000 2.2000
22:39 3.4 1.9 90 227 2.2 6.1 1018.4 0.0000 2.2000
22:49 3.4 1.9 90 230 1.9 4.2 1018.6 0.1475 2.4000
22:54 3.4 2.1 91 239 1.9 3.9 1018.7 0.4426 2.7000
23:09 3.4 2.1 91 235 1.1 3.1 1018.8 0.7377 3.0000
23:29 3.3 2.1 92 222 1.4 5.3 1018.7 1.1804 3.4000
23:39 3.3 2.3 93 225 1.7 4.4 1018.6 1.3279 3.5000
23:50 3.3 2.3 93 226 1.9 5.8 1018.6 0.8853 3.5000

DAY STATISTIC

2018-12-10
TEMPERATURE
AVERAGE
4.2
HIGH
5.3
00:03
LOW
3.2
21:28
PRESSURE
AVERAGE
1016.7
HIGH
1018.8
10:34
LOW
1011.1
00:03
DEWPOINT
AVERAGE
2.2
HIGH
3.5
00:03
LOW
1.0
17:01
HUMIDITY
AVERAGE
87
HIGH
93
23:39
LOW
81
15:41
WIND SPEED
AVERAGE
2.0
HIGH
3.1
19:35
WIND GUST
AVERAGE
5.2
HIGH
10.6
13:19
WIND DIRECTION
PREVAILING
SW
100%
N
0.0
NE
0.0
E
0.0
SE
0.0
S
0.0
SW
100.0
W
0.0
NW
0.0
PRECIPITATION
RAIN HOUR
1.3
RAIN DAY
3.5
TEMPERATURE (°C)
LOW
3.2
HIGH
5.3
AVERAGE
4.2
PRESSURE (hpa)
LOW
1011.1
HIGH
1018.8
AVERAGE
1016.7
DEVICE